sensor_id;sensor_type;location;lat;lon;timestamp;P1;durP1;ratioP1;P2;durP2;ratioP2
7336;SDS011;54510;42.016;23.098;2024-03-29T00:01:15;5.30;;;1.48;;
7336;SDS011;54510;42.016;23.098;2024-03-29T00:03:40;6.50;;;1.50;;
7336;SDS011;54510;42.016;23.098;2024-03-29T00:06:05;2.55;;;1.00;;
7336;SDS011;54510;42.016;23.098;2024-03-29T00:08:30;2.20;;;1.15;;
7336;SDS011;54510;42.016;23.098;2024-03-29T00:10:56;2.30;;;0.70;;
7336;SDS011;54510;42.016;23.098;2024-03-29T00:13:21;1.60;;;0.70;;
7336;SDS011;54510;42.016;23.098;2024-03-29T00:15:46;3.05;;;0.80;;
7336;SDS011;54510;42.016;23.098;2024-03-29T00:18:11;5.30;;;1.40;;
7336;SDS011;54510;42.016;23.098;2024-03-29T00:20:36;7.03;;;1.45;;
7336;SDS011;54510;42.016;23.098;2024-03-29T00:23:02;3.92;;;1.35;;
7336;SDS011;54510;42.016;23.098;2024-03-29T00:25:27;7.50;;;1.70;;
7336;SDS011;54510;42.016;23.098;2024-03-29T00:27:52;5.88;;;2.15;;
7336;SDS011;54510;42.016;23.098;2024-03-29T00:30:17;5.88;;;1.20;;
7336;SDS011;54510;42.016;23.098;2024-03-29T00:32:43;4.70;;;1.55;;
7336;SDS011;54510;42.016;23.098;2024-03-29T00:35:08;8.38;;;2.58;;
7336;SDS011;54510;42.016;23.098;2024-03-29T00:37:33;8.73;;;2.80;;
7336;SDS011;54510;42.016;23.098;2024-03-29T00:39:59;6.18;;;2.65;;
7336;SDS011;54510;42.016;23.098;2024-03-29T00:42:24;5.97;;;2.20;;
7336;SDS011;54510;42.016;23.098;2024-03-29T00:44:49;10.85;;;2.80;;
7336;SDS011;54510;42.016;23.098;2024-03-29T00:47:15;6.40;;;2.10;;
7336;SDS011;54510;42.016;23.098;2024-03-29T00:49:40;5.05;;;1.70;;
7336;SDS011;54510;42.016;23.098;2024-03-29T00:52:05;5.32;;;2.20;;
7336;SDS011;54510;42.016;23.098;2024-03-29T00:54:31;5.97;;;2.28;;
7336;SDS011;54510;42.016;23.098;2024-03-29T00:56:56;4.60;;;2.15;;
7336;SDS011;54510;42.016;23.098;2024-03-29T00:59:21;2.35;;;1.38;;
7336;SDS011;54510;42.016;23.098;2024-03-29T01:01:47;5.60;;;1.20;;
7336;SDS011;54510;42.016;23.098;2024-03-29T01:04:13;2.83;;;1.17;;
7336;SDS011;54510;42.016;23.098;2024-03-29T01:06:38;1.42;;;0.60;;
7336;SDS011;54510;42.016;23.098;2024-03-29T01:09:05;2.80;;;0.80;;
7336;SDS011;54510;42.016;23.098;2024-03-29T01:11:30;3.78;;;0.93;;
7336;SDS011;54510;42.016;23.098;2024-03-29T01:13:56;3.78;;;0.85;;
7336;SDS011;54510;42.016;23.098;2024-03-29T01:16:21;0.77;;;0.40;;
7336;SDS011;54510;42.016;23.098;2024-03-29T01:18:46;1.13;;;0.50;;
7336;SDS011;54510;42.016;23.098;2024-03-29T01:21:12;4.10;;;1.08;;
7336;SDS011;54510;42.016;23.098;2024-03-29T01:23:37;4.15;;;1.30;;
7336;SDS011;54510;42.016;23.098;2024-03-29T01:26:02;4.55;;;1.33;;
7336;SDS011;54510;42.016;23.098;2024-03-29T01:28:28;6.28;;;1.77;;
7336;SDS011;54510;42.016;23.098;2024-03-29T01:30:54;3.10;;;1.70;;
7336;SDS011;54510;42.016;23.098;2024-03-29T01:33:23;2.47;;;1.75;;
7336;SDS011;54510;42.016;23.098;2024-03-29T01:35:49;3.97;;;1.60;;
7336;SDS011;54510;42.016;23.098;2024-03-29T01:38:14;3.60;;;1.65;;
7336;SDS011;54510;42.016;23.098;2024-03-29T01:40:40;4.55;;;1.58;;
7336;SDS011;54510;42.016;23.098;2024-03-29T01:43:05;3.95;;;1.67;;
7336;SDS011;54510;42.016;23.098;2024-03-29T01:45:30;3.10;;;1.42;;
7336;SDS011;54510;42.016;23.098;2024-03-29T01:47:56;3.95;;;1.35;;
7336;SDS011;54510;42.016;23.098;2024-03-29T01:50:21;5.63;;;1.30;;
7336;SDS011;54510;42.016;23.098;2024-03-29T01:52:46;2.75;;;1.25;;
7336;SDS011;54510;42.016;23.098;2024-03-29T01:55:12;4.85;;;1.60;;
7336;SDS011;54510;42.016;23.098;2024-03-29T01:57:37;4.80;;;1.50;;
7336;SDS011;54510;42.016;23.098;2024-03-29T02:00:03;8.70;;;1.38;;
7336;SDS011;54510;42.016;23.098;2024-03-29T02:02:30;3.95;;;2.00;;
7336;SDS011;54510;42.016;23.098;2024-03-29T02:04:57;3.30;;;1.35;;
7336;SDS011;54510;42.016;23.098;2024-03-29T02:07:22;12.63;;;2.03;;
7336;SDS011;54510;42.016;23.098;2024-03-29T02:09:47;6.18;;;2.22;;
7336;SDS011;54510;42.016;23.098;2024-03-29T02:12:13;3.90;;;1.50;;
7336;SDS011;54510;42.016;23.098;2024-03-29T02:14:38;5.85;;;1.58;;
7336;SDS011;54510;42.016;23.098;2024-03-29T02:17:05;8.98;;;2.20;;
7336;SDS011;54510;42.016;23.098;2024-03-29T02:19:31;9.25;;;1.30;;
7336;SDS011;54510;42.016;23.098;2024-03-29T02:21:56;2.97;;;1.40;;
7336;SDS011;54510;42.016;23.098;2024-03-29T02:24:24;5.78;;;1.92;;
7336;SDS011;54510;42.016;23.098;2024-03-29T02:26:49;3.05;;;1.20;;
7336;SDS011;54510;42.016;23.098;2024-03-29T02:29:15;3.80;;;1.13;;
7336;SDS011;54510;42.016;23.098;2024-03-29T02:31:40;2.72;;;1.40;;
7336;SDS011;54510;42.016;23.098;2024-03-29T02:34:05;5.22;;;1.77;;
7336;SDS011;54510;42.016;23.098;2024-03-29T02:36:32;4.40;;;1.67;;
7336;SDS011;54510;42.016;23.098;2024-03-29T02:38:58;4.93;;;1.50;;
7336;SDS011;54510;42.016;23.098;2024-03-29T02:41:23;3.55;;;1.40;;
7336;SDS011;54510;42.016;23.098;2024-03-29T02:43:48;3.05;;;1.80;;
7336;SDS011;54510;42.016;23.098;2024-03-29T02:46:13;3.25;;;1.02;;
7336;SDS011;54510;42.016;23.098;2024-03-29T02:48:39;2.38;;;1.25;;
7336;SDS011;54510;42.016;23.098;2024-03-29T02:51:04;5.47;;;1.75;;
7336;SDS011;54510;42.016;23.098;2024-03-29T02:53:29;5.88;;;1.48;;
7336;SDS011;54510;42.016;23.098;2024-03-29T02:55:54;7.68;;;1.52;;
7336;SDS011;54510;42.016;23.098;2024-03-29T02:58:20;5.90;;;1.33;;
7336;SDS011;54510;42.016;23.098;2024-03-29T03:00:45;3.55;;;1.50;;
7336;SDS011;54510;42.016;23.098;2024-03-29T03:03:10;8.80;;;2.13;;
7336;SDS011;54510;42.016;23.098;2024-03-29T03:05:35;6.30;;;2.35;;
7336;SDS011;54510;42.016;23.098;2024-03-29T03:08:01;6.07;;;1.50;;
7336;SDS011;54510;42.016;23.098;2024-03-29T03:10:48;8.25;;;2.00;;
7336;SDS011;54510;42.016;23.098;2024-03-29T03:13:27;4.35;;;1.63;;
7336;SDS011;54510;42.016;23.098;2024-03-29T03:15:53;5.70;;;1.13;;
7336;SDS011;54510;42.016;23.098;2024-03-29T03:18:18;5.00;;;1.13;;
7336;SDS011;54510;42.016;23.098;2024-03-29T03:20:50;3.50;;;0.82;;
7336;SDS011;54510;42.016;23.098;2024-03-29T03:23:15;4.65;;;0.93;;
7336;SDS011;54510;42.016;23.098;2024-03-29T03:25:40;2.25;;;0.90;;
7336;SDS011;54510;42.016;23.098;2024-03-29T03:28:05;10.40;;;1.55;;
7336;SDS011;54510;42.016;23.098;2024-03-29T03:30:31;4.50;;;1.17;;
7336;SDS011;54510;42.016;23.098;2024-03-29T03:32:56;4.88;;;1.05;;
7336;SDS011;54510;42.016;23.098;2024-03-29T03:35:21;3.03;;;0.75;;
7336;SDS011;54510;42.016;23.098;2024-03-29T03:37:46;2.90;;;0.88;;
7336;SDS011;54510;42.016;23.098;2024-03-29T03:40:12;6.57;;;1.15;;
7336;SDS011;54510;42.016;23.098;2024-03-29T03:42:37;1.67;;;1.00;;
7336;SDS011;54510;42.016;23.098;2024-03-29T03:45:02;1.80;;;0.77;;
7336;SDS011;54510;42.016;23.098;2024-03-29T03:47:28;6.65;;;0.80;;
7336;SDS011;54510;42.016;23.098;2024-03-29T03:49:54;2.55;;;1.10;;
7336;SDS011;54510;42.016;23.098;2024-03-29T03:52:19;3.03;;;0.95;;
7336;SDS011;54510;42.016;23.098;2024-03-29T03:54:44;2.65;;;1.42;;
7336;SDS011;54510;42.016;23.098;2024-03-29T03:57:09;6.20;;;1.20;;
7336;SDS011;54510;42.016;23.098;2024-03-29T03:59:34;3.85;;;1.50;;
7336;SDS011;54510;42.016;23.098;2024-03-29T04:02:00;2.85;;;1.48;;
7336;SDS011;54510;42.016;23.098;2024-03-29T04:04:25;4.50;;;1.70;;
7336;SDS011;54510;42.016;23.098;2024-03-29T04:06:50;7.43;;;1.90;;
7336;SDS011;54510;42.016;23.098;2024-03-29T04:09:16;3.08;;;1.63;;
7336;SDS011;54510;42.016;23.098;2024-03-29T04:11:41;5.90;;;2.35;;
7336;SDS011;54510;42.016;23.098;2024-03-29T04:14:06;4.82;;;2.13;;
7336;SDS011;54510;42.016;23.098;2024-03-29T04:16:32;4.47;;;1.38;;
7336;SDS011;54510;42.016;23.098;2024-03-29T04:18:57;3.53;;;1.65;;
7336;SDS011;54510;42.016;23.098;2024-03-29T04:21:22;5.00;;;1.88;;
7336;SDS011;54510;42.016;23.098;2024-03-29T04:23:47;6.43;;;1.63;;
7336;SDS011;54510;42.016;23.098;2024-03-29T04:26:13;7.15;;;2.03;;
7336;SDS011;54510;42.016;23.098;2024-03-29T04:28:38;6.13;;;1.65;;
7336;SDS011;54510;42.016;23.098;2024-03-29T04:31:03;5.20;;;1.70;;
7336;SDS011;54510;42.016;23.098;2024-03-29T04:33:29;2.92;;;1.17;;
7336;SDS011;54510;42.016;23.098;2024-03-29T04:35:55;3.65;;;1.75;;
7336;SDS011;54510;42.016;23.098;2024-03-29T04:38:21;7.93;;;4.30;;
7336;SDS011;54510;42.016;23.098;2024-03-29T04:40:46;5.53;;;2.55;;
7336;SDS011;54510;42.016;23.098;2024-03-29T04:43:12;3.72;;;2.03;;
7336;SDS011;54510;42.016;23.098;2024-03-29T04:45:37;8.80;;;2.25;;
7336;SDS011;54510;42.016;23.098;2024-03-29T04:48:02;6.32;;;1.88;;
7336;SDS011;54510;42.016;23.098;2024-03-29T04:50:27;4.80;;;2.05;;
7336;SDS011;54510;42.016;23.098;2024-03-29T04:52:53;8.65;;;2.15;;
7336;SDS011;54510;42.016;23.098;2024-03-29T04:55:18;3.97;;;2.10;;
7336;SDS011;54510;42.016;23.098;2024-03-29T04:57:43;5.25;;;2.85;;
7336;SDS011;54510;42.016;23.098;2024-03-29T05:00:09;6.20;;;2.35;;
7336;SDS011;54510;42.016;23.098;2024-03-29T05:02:34;4.55;;;2.25;;
7336;SDS011;54510;42.016;23.098;2024-03-29T05:04:59;6.18;;;2.08;;
7336;SDS011;54510;42.016;23.098;2024-03-29T05:07:25;7.75;;;1.83;;
7336;SDS011;54510;42.016;23.098;2024-03-29T05:09:50;5.97;;;2.45;;
7336;SDS011;54510;42.016;23.098;2024-03-29T05:12:15;5.25;;;2.35;;
7336;SDS011;54510;42.016;23.098;2024-03-29T05:14:40;4.65;;;1.48;;
7336;SDS011;54510;42.016;23.098;2024-03-29T05:17:06;4.20;;;2.05;;
7336;SDS011;54510;42.016;23.098;2024-03-29T05:19:31;8.32;;;4.93;;
7336;SDS011;54510;42.016;23.098;2024-03-29T05:21:56;6.32;;;3.17;;
7336;SDS011;54510;42.016;23.098;2024-03-29T05:24:21;8.18;;;2.85;;
7336;SDS011;54510;42.016;23.098;2024-03-29T05:26:46;6.22;;;2.53;;
7336;SDS011;54510;42.016;23.098;2024-03-29T05:29:12;8.98;;;3.75;;
7336;SDS011;54510;42.016;23.098;2024-03-29T05:31:37;12.85;;;3.72;;
7336;SDS011;54510;42.016;23.098;2024-03-29T05:34:02;5.72;;;3.45;;
7336;SDS011;54510;42.016;23.098;2024-03-29T05:36:28;4.50;;;2.50;;
7336;SDS011;54510;42.016;23.098;2024-03-29T05:38:53;7.47;;;2.78;;
7336;SDS011;54510;42.016;23.098;2024-03-29T05:41:19;8.10;;;2.83;;
7336;SDS011;54510;42.016;23.098;2024-03-29T05:43:44;8.63;;;2.47;;
7336;SDS011;54510;42.016;23.098;2024-03-29T05:46:09;7.75;;;4.63;;
7336;SDS011;54510;42.016;23.098;2024-03-29T05:48:34;5.43;;;2.20;;
7336;SDS011;54510;42.016;23.098;2024-03-29T05:51:00;4.13;;;1.83;;
7336;SDS011;54510;42.016;23.098;2024-03-29T05:53:25;6.45;;;1.85;;
7336;SDS011;54510;42.016;23.098;2024-03-29T05:55:50;4.10;;;2.03;;
7336;SDS011;54510;42.016;23.098;2024-03-29T05:58:16;6.75;;;2.30;;
7336;SDS011;54510;42.016;23.098;2024-03-29T06:00:45;8.90;;;2.45;;
7336;SDS011;54510;42.016;23.098;2024-03-29T06:03:11;7.18;;;2.58;;
7336;SDS011;54510;42.016;23.098;2024-03-29T06:05:36;11.23;;;5.35;;
7336;SDS011;54510;42.016;23.098;2024-03-29T06:08:01;16.08;;;4.97;;
7336;SDS011;54510;42.016;23.098;2024-03-29T06:10:27;12.40;;;4.70;;
7336;SDS011;54510;42.016;23.098;2024-03-29T06:12:52;10.45;;;3.67;;
7336;SDS011;54510;42.016;23.098;2024-03-29T06:15:17;13.63;;;4.78;;
7336;SDS011;54510;42.016;23.098;2024-03-29T06:18:01;13.20;;;5.45;;
7336;SDS011;54510;42.016;23.098;2024-03-29T06:20:26;9.65;;;5.07;;
7336;SDS011;54510;42.016;23.098;2024-03-29T06:22:51;18.95;;;7.78;;
7336;SDS011;54510;42.016;23.098;2024-03-29T06:25:16;34.72;;;12.95;;
7336;SDS011;54510;42.016;23.098;2024-03-29T06:27:42;49.45;;;18.55;;
7336;SDS011;54510;42.016;23.098;2024-03-29T06:30:14;57.72;;;23.58;;
7336;SDS011;54510;42.016;23.098;2024-03-29T06:32:40;48.92;;;17.80;;
7336;SDS011;54510;42.016;23.098;2024-03-29T06:35:06;25.90;;;11.35;;
7336;SDS011;54510;42.016;23.098;2024-03-29T06:37:32;29.63;;;11.20;;
7336;SDS011;54510;42.016;23.098;2024-03-29T06:39:58;20.38;;;9.60;;
7336;SDS011;54510;42.016;23.098;2024-03-29T06:42:23;19.70;;;8.65;;
7336;SDS011;54510;42.016;23.098;2024-03-29T06:44:48;20.75;;;7.50;;
7336;SDS011;54510;42.016;23.098;2024-03-29T06:47:14;11.07;;;5.40;;
7336;SDS011;54510;42.016;23.098;2024-03-29T06:49:39;10.77;;;5.78;;
7336;SDS011;54510;42.016;23.098;2024-03-29T06:52:05;15.70;;;5.70;;
7336;SDS011;54510;42.016;23.098;2024-03-29T06:54:30;13.32;;;3.83;;
7336;SDS011;54510;42.016;23.098;2024-03-29T06:56:57;10.65;;;3.63;;
7336;SDS011;54510;42.016;23.098;2024-03-29T06:59:22;5.38;;;3.03;;
7336;SDS011;54510;42.016;23.098;2024-03-29T07:01:48;6.95;;;3.33;;
7336;SDS011;54510;42.016;23.098;2024-03-29T07:04:17;8.45;;;3.42;;
7336;SDS011;54510;42.016;23.098;2024-03-29T07:06:42;13.30;;;3.25;;
7336;SDS011;54510;42.016;23.098;2024-03-29T07:09:10;6.88;;;2.75;;
7336;SDS011;54510;42.016;23.098;2024-03-29T07:11:35;10.18;;;3.45;;
7336;SDS011;54510;42.016;23.098;2024-03-29T07:14:01;8.27;;;4.13;;
7336;SDS011;54510;42.016;23.098;2024-03-29T07:16:26;9.90;;;4.93;;
7336;SDS011;54510;42.016;23.098;2024-03-29T07:18:51;7.85;;;2.47;;
7336;SDS011;54510;42.016;23.098;2024-03-29T07:21:17;10.00;;;5.10;;
7336;SDS011;54510;42.016;23.098;2024-03-29T07:23:42;4.57;;;2.30;;
7336;SDS011;54510;42.016;23.098;2024-03-29T07:26:07;5.43;;;2.40;;
7336;SDS011;54510;42.016;23.098;2024-03-29T07:28:32;13.63;;;3.00;;
7336;SDS011;54510;42.016;23.098;2024-03-29T07:30:58;12.95;;;4.97;;
7336;SDS011;54510;42.016;23.098;2024-03-29T07:33:29;9.32;;;3.22;;
7336;SDS011;54510;42.016;23.098;2024-03-29T07:35:55;9.10;;;2.42;;
7336;SDS011;54510;42.016;23.098;2024-03-29T07:38:20;15.50;;;3.03;;
7336;SDS011;54510;42.016;23.098;2024-03-29T07:40:46;24.58;;;5.75;;
7336;SDS011;54510;42.016;23.098;2024-03-29T07:43:11;32.58;;;4.03;;
7336;SDS011;54510;42.016;23.098;2024-03-29T07:45:39;6.18;;;2.80;;
7336;SDS011;54510;42.016;23.098;2024-03-29T07:48:04;8.95;;;2.35;;
7336;SDS011;54510;42.016;23.098;2024-03-29T07:50:30;7.38;;;2.53;;
7336;SDS011;54510;42.016;23.098;2024-03-29T07:52:55;7.97;;;2.25;;
7336;SDS011;54510;42.016;23.098;2024-03-29T07:55:20;9.30;;;2.55;;
7336;SDS011;54510;42.016;23.098;2024-03-29T07:57:45;6.50;;;2.58;;
7336;SDS011;54510;42.016;23.098;2024-03-29T08:00:12;6.55;;;1.98;;
7336;SDS011;54510;42.016;23.098;2024-03-29T08:02:38;5.72;;;2.05;;
7336;SDS011;54510;42.016;23.098;2024-03-29T08:05:03;6.65;;;2.15;;
7336;SDS011;54510;42.016;23.098;2024-03-29T08:07:31;9.65;;;3.60;;
7336;SDS011;54510;42.016;23.098;2024-03-29T08:09:56;7.65;;;3.90;;
7336;SDS011;54510;42.016;23.098;2024-03-29T08:12:21;11.57;;;5.82;;
7336;SDS011;54510;42.016;23.098;2024-03-29T08:14:47;5.53;;;2.25;;
7336;SDS011;54510;42.016;23.098;2024-03-29T08:17:12;10.93;;;5.20;;
7336;SDS011;54510;42.016;23.098;2024-03-29T08:19:40;17.02;;;7.18;;
7336;SDS011;54510;42.016;23.098;2024-03-29T08:22:05;7.40;;;3.60;;
7336;SDS011;54510;42.016;23.098;2024-03-29T08:24:31;11.40;;;2.22;;
7336;SDS011;54510;42.016;23.098;2024-03-29T08:26:56;6.35;;;3.53;;
7336;SDS011;54510;42.016;23.098;2024-03-29T08:29:24;17.48;;;3.25;;
7336;SDS011;54510;42.016;23.098;2024-03-29T08:31:49;20.10;;;9.98;;
7336;SDS011;54510;42.016;23.098;2024-03-29T08:34:14;7.78;;;3.92;;
7336;SDS011;54510;42.016;23.098;2024-03-29T08:36:40;5.38;;;2.17;;
7336;SDS011;54510;42.016;23.098;2024-03-29T08:39:05;10.73;;;2.53;;
7336;SDS011;54510;42.016;23.098;2024-03-29T08:41:31;14.95;;;9.35;;
7336;SDS011;54510;42.016;23.098;2024-03-29T08:43:56;8.30;;;2.13;;
7336;SDS011;54510;42.016;23.098;2024-03-29T08:46:21;6.57;;;2.15;;
7336;SDS011;54510;42.016;23.098;2024-03-29T08:48:47;6.32;;;2.88;;
7336;SDS011;54510;42.016;23.098;2024-03-29T08:51:12;8.82;;;1.98;;
7336;SDS011;54510;42.016;23.098;2024-03-29T08:53:39;7.22;;;2.53;;
7336;SDS011;54510;42.016;23.098;2024-03-29T08:56:05;6.57;;;2.80;;
7336;SDS011;54510;42.016;23.098;2024-03-29T08:58:30;5.32;;;2.35;;
7336;SDS011;54510;42.016;23.098;2024-03-29T09:00:55;4.53;;;1.63;;
7336;SDS011;54510;42.016;23.098;2024-03-29T09:03:24;4.68;;;2.10;;
7336;SDS011;54510;42.016;23.098;2024-03-29T09:05:50;11.88;;;4.38;;
7336;SDS011;54510;42.016;23.098;2024-03-29T09:08:16;4.75;;;2.55;;
7336;SDS011;54510;42.016;23.098;2024-03-29T09:10:42;4.97;;;1.77;;
7336;SDS011;54510;42.016;23.098;2024-03-29T09:13:07;8.90;;;1.55;;
7336;SDS011;54510;42.016;23.098;2024-03-29T09:15:34;4.68;;;1.48;;
7336;SDS011;54510;42.016;23.098;2024-03-29T09:17:59;4.47;;;1.98;;
7336;SDS011;54510;42.016;23.098;2024-03-29T09:20:28;3.92;;;2.20;;
7336;SDS011;54510;42.016;23.098;2024-03-29T09:22:53;6.70;;;2.15;;
7336;SDS011;54510;42.016;23.098;2024-03-29T09:25:19;3.88;;;1.42;;
7336;SDS011;54510;42.016;23.098;2024-03-29T09:27:47;6.93;;;1.70;;
7336;SDS011;54510;42.016;23.098;2024-03-29T09:30:13;5.90;;;1.73;;
7336;SDS011;54510;42.016;23.098;2024-03-29T09:32:38;4.50;;;1.27;;
7336;SDS011;54510;42.016;23.098;2024-03-29T09:35:04;5.03;;;1.90;;
7336;SDS011;54510;42.016;23.098;2024-03-29T09:37:29;14.80;;;6.97;;
7336;SDS011;54510;42.016;23.098;2024-03-29T09:39:55;5.50;;;1.70;;
7336;SDS011;54510;42.016;23.098;2024-03-29T09:42:21;3.35;;;2.00;;
7336;SDS011;54510;42.016;23.098;2024-03-29T09:44:47;7.45;;;1.90;;
7336;SDS011;54510;42.016;23.098;2024-03-29T09:47:15;5.68;;;1.70;;
7336;SDS011;54510;42.016;23.098;2024-03-29T09:49:42;3.78;;;1.50;;
7336;SDS011;54510;42.016;23.098;2024-03-29T09:52:09;3.65;;;1.10;;
7336;SDS011;54510;42.016;23.098;2024-03-29T09:54:34;3.22;;;1.67;;
7336;SDS011;54510;42.016;23.098;2024-03-29T09:57:00;2.65;;;1.25;;
7336;SDS011;54510;42.016;23.098;2024-03-29T09:59:25;4.47;;;0.98;;
7336;SDS011;54510;42.016;23.098;2024-03-29T10:01:51;2.75;;;1.15;;
7336;SDS011;54510;42.016;23.098;2024-03-29T10:04:18;2.72;;;0.88;;
7336;SDS011;54510;42.016;23.098;2024-03-29T10:06:46;3.22;;;1.45;;
7336;SDS011;54510;42.016;23.098;2024-03-29T10:09:14;3.42;;;0.60;;
7336;SDS011;54510;42.016;23.098;2024-03-29T10:11:39;6.10;;;1.17;;
7336;SDS011;54510;42.016;23.098;2024-03-29T10:14:04;3.17;;;1.08;;
7336;SDS011;54510;42.016;23.098;2024-03-29T10:16:30;2.70;;;1.02;;
7336;SDS011;54510;42.016;23.098;2024-03-29T10:18:58;5.32;;;1.83;;
7336;SDS011;54510;42.016;23.098;2024-03-29T10:21:26;2.85;;;1.40;;
7336;SDS011;54510;42.016;23.098;2024-03-29T10:23:51;9.77;;;5.20;;
7336;SDS011;54510;42.016;23.098;2024-03-29T10:26:17;7.93;;;2.33;;
7336;SDS011;54510;42.016;23.098;2024-03-29T10:28:43;2.75;;;1.45;;
7336;SDS011;54510;42.016;23.098;2024-03-29T10:31:08;6.13;;;2.28;;
7336;SDS011;54510;42.016;23.098;2024-03-29T10:33:33;3.92;;;1.45;;
7336;SDS011;54510;42.016;23.098;2024-03-29T10:35:59;11.68;;;3.47;;
7336;SDS011;54510;42.016;23.098;2024-03-29T10:38:25;11.50;;;2.40;;
7336;SDS011;54510;42.016;23.098;2024-03-29T10:40:51;4.00;;;1.90;;
7336;SDS011;54510;42.016;23.098;2024-03-29T10:43:16;7.05;;;1.02;;
7336;SDS011;54510;42.016;23.098;2024-03-29T10:45:45;2.92;;;0.90;;
7336;SDS011;54510;42.016;23.098;2024-03-29T10:48:11;1.88;;;1.10;;
7336;SDS011;54510;42.016;23.098;2024-03-29T10:50:37;4.18;;;1.88;;
7336;SDS011;54510;42.016;23.098;2024-03-29T10:53:02;3.40;;;2.13;;
7336;SDS011;54510;42.016;23.098;2024-03-29T10:55:37;4.63;;;1.42;;
7336;SDS011;54510;42.016;23.098;2024-03-29T10:58:03;8.23;;;4.47;;
7336;SDS011;54510;42.016;23.098;2024-03-29T11:00:29;4.10;;;1.88;;
7336;SDS011;54510;42.016;23.098;2024-03-29T11:05:47;4.10;;;0.88;;
7336;SDS011;54510;42.016;23.098;2024-03-29T11:08:14;6.50;;;1.80;;
7336;SDS011;54510;42.016;23.098;2024-03-29T11:10:42;6.35;;;1.23;;
7336;SDS011;54510;42.016;23.098;2024-03-29T11:16:14;4.80;;;1.90;;
7336;SDS011;54510;42.016;23.098;2024-03-29T11:18:41;4.32;;;1.90;;
7336;SDS011;54510;42.016;23.098;2024-03-29T11:21:06;10.55;;;1.42;;
7336;SDS011;54510;42.016;23.098;2024-03-29T11:23:34;1.90;;;1.20;;
7336;SDS011;54510;42.016;23.098;2024-03-29T11:26:00;4.30;;;0.80;;
7336;SDS011;54510;42.016;23.098;2024-03-29T11:28:35;4.03;;;1.75;;
7336;SDS011;54510;42.016;23.098;2024-03-29T11:31:05;8.43;;;2.63;;
7336;SDS011;54510;42.016;23.098;2024-03-29T11:38:44;3.30;;;1.52;;
7336;SDS011;54510;42.016;23.098;2024-03-29T11:41:10;4.97;;;2.75;;
7336;SDS011;54510;42.016;23.098;2024-03-29T11:43:36;8.93;;;1.67;;
7336;SDS011;54510;42.016;23.098;2024-03-29T11:46:02;4.25;;;1.42;;
7336;SDS011;54510;42.016;23.098;2024-03-29T11:48:28;1.52;;;0.75;;
7336;SDS011;54510;42.016;23.098;2024-03-29T11:50:54;2.50;;;0.68;;
7336;SDS011;54510;42.016;23.098;2024-03-29T11:53:20;0.95;;;0.50;;
7336;SDS011;54510;42.016;23.098;2024-03-29T11:55:45;4.70;;;1.00;;
7336;SDS011;54510;42.016;23.098;2024-03-29T11:58:10;4.05;;;1.40;;
7336;SDS011;54510;42.016;23.098;2024-03-29T12:00:37;4.05;;;2.50;;
7336;SDS011;54510;42.016;23.098;2024-03-29T12:03:04;8.90;;;5.72;;
7336;SDS011;54510;42.016;23.098;2024-03-29T12:05:29;4.47;;;1.30;;
7336;SDS011;54510;42.016;23.098;2024-03-29T12:07:54;3.67;;;0.73;;
7336;SDS011;54510;42.016;23.098;2024-03-29T12:10:20;2.90;;;0.50;;
7336;SDS011;54510;42.016;23.098;2024-03-29T12:12:45;1.90;;;0.70;;
7336;SDS011;54510;42.016;23.098;2024-03-29T12:15:11;1.45;;;0.50;;
7336;SDS011;54510;42.016;23.098;2024-03-29T12:17:37;1.35;;;0.60;;
7336;SDS011;54510;42.016;23.098;2024-03-29T12:20:04;6.57;;;0.73;;
7336;SDS011;54510;42.016;23.098;2024-03-29T12:22:35;3.65;;;1.10;;
7336;SDS011;54510;42.016;23.098;2024-03-29T12:25:01;2.45;;;0.60;;
7336;SDS011;54510;42.016;23.098;2024-03-29T12:27:26;5.15;;;1.10;;
7336;SDS011;54510;42.016;23.098;2024-03-29T12:29:51;1.85;;;0.70;;
7336;SDS011;54510;42.016;23.098;2024-03-29T12:32:20;3.75;;;1.60;;
7336;SDS011;54510;42.016;23.098;2024-03-29T12:34:45;2.05;;;0.90;;
7336;SDS011;54510;42.016;23.098;2024-03-29T12:37:12;6.00;;;1.15;;
7336;SDS011;54510;42.016;23.098;2024-03-29T12:39:37;3.00;;;1.60;;
7336;SDS011;54510;42.016;23.098;2024-03-29T12:42:05;3.03;;;0.88;;
7336;SDS011;54510;42.016;23.098;2024-03-29T12:44:30;4.78;;;0.90;;
7336;SDS011;54510;42.016;23.098;2024-03-29T12:46:57;2.15;;;0.90;;
7336;SDS011;54510;42.016;23.098;2024-03-29T12:49:24;5.15;;;1.25;;
7336;SDS011;54510;42.016;23.098;2024-03-29T12:51:49;2.88;;;1.20;;
7336;SDS011;54510;42.016;23.098;2024-03-29T12:54:14;4.15;;;0.80;;
7336;SDS011;54510;42.016;23.098;2024-03-29T12:56:40;4.20;;;2.33;;
7336;SDS011;54510;42.016;23.098;2024-03-29T12:59:07;1.70;;;0.50;;
7336;SDS011;54510;42.016;23.098;2024-03-29T13:01:32;3.45;;;0.63;;
7336;SDS011;54510;42.016;23.098;2024-03-29T13:03:57;2.42;;;0.80;;
7336;SDS011;54510;42.016;23.098;2024-03-29T13:06:23;1.92;;;0.60;;
7336;SDS011;54510;42.016;23.098;2024-03-29T13:08:48;0.82;;;0.55;;
7336;SDS011;54510;42.016;23.098;2024-03-29T13:11:14;1.90;;;0.60;;
7336;SDS011;54510;42.016;23.098;2024-03-29T13:13:40;1.27;;;0.52;;
7336;SDS011;54510;42.016;23.098;2024-03-29T13:16:05;2.92;;;1.52;;
7336;SDS011;54510;42.016;23.098;2024-03-29T13:18:31;11.82;;;3.22;;
7336;SDS011;54510;42.016;23.098;2024-03-29T13:20:56;3.63;;;0.82;;
7336;SDS011;54510;42.016;23.098;2024-03-29T13:23:24;3.50;;;1.65;;
7336;SDS011;54510;42.016;23.098;2024-03-29T13:25:50;2.28;;;0.70;;
7336;SDS011;54510;42.016;23.098;2024-03-29T13:28:18;2.72;;;0.82;;
7336;SDS011;54510;42.016;23.098;2024-03-29T13:30:43;1.98;;;0.77;;
7336;SDS011;54510;42.016;23.098;2024-03-29T13:33:10;3.00;;;0.80;;
7336;SDS011;54510;42.016;23.098;2024-03-29T13:35:36;2.78;;;0.85;;
7336;SDS011;54510;42.016;23.098;2024-03-29T13:38:02;1.75;;;0.57;;
7336;SDS011;54510;42.016;23.098;2024-03-29T13:40:27;1.77;;;0.60;;
7336;SDS011;54510;42.016;23.098;2024-03-29T13:42:52;3.40;;;1.10;;
7336;SDS011;54510;42.016;23.098;2024-03-29T13:45:17;4.70;;;0.70;;
7336;SDS011;54510;42.016;23.098;2024-03-29T13:47:44;2.35;;;0.73;;
7336;SDS011;54510;42.016;23.098;2024-03-29T13:50:09;8.10;;;0.93;;
7336;SDS011;54510;42.016;23.098;2024-03-29T13:52:35;3.15;;;1.75;;
7336;SDS011;54510;42.016;23.098;2024-03-29T13:55:01;5.68;;;3.33;;
7336;SDS011;54510;42.016;23.098;2024-03-29T13:57:27;2.58;;;0.68;;
7336;SDS011;54510;42.016;23.098;2024-03-29T13:59:52;3.10;;;1.03;;
7336;SDS011;54510;42.016;23.098;2024-03-29T14:02:18;2.30;;;0.90;;
7336;SDS011;54510;42.016;23.098;2024-03-29T14:04:44;1.50;;;0.60;;
7336;SDS011;54510;42.016;23.098;2024-03-29T14:07:10;1.35;;;0.65;;
7336;SDS011;54510;42.016;23.098;2024-03-29T14:09:39;4.45;;;0.90;;
7336;SDS011;54510;42.016;23.098;2024-03-29T14:12:04;3.10;;;0.70;;
7336;SDS011;54510;42.016;23.098;2024-03-29T14:14:30;1.20;;;0.47;;
7336;SDS011;54510;42.016;23.098;2024-03-29T14:16:55;1.65;;;0.77;;
7336;SDS011;54510;42.016;23.098;2024-03-29T14:19:20;2.72;;;0.63;;
7336;SDS011;54510;42.016;23.098;2024-03-29T14:21:46;3.70;;;0.90;;
7336;SDS011;54510;42.016;23.098;2024-03-29T14:24:11;3.03;;;1.00;;
7336;SDS011;54510;42.016;23.098;2024-03-29T14:26:36;1.87;;;0.63;;
7336;SDS011;54510;42.016;23.098;2024-03-29T14:29:01;4.10;;;0.60;;
7336;SDS011;54510;42.016;23.098;2024-03-29T14:31:26;5.72;;;0.90;;
7336;SDS011;54510;42.016;23.098;2024-03-29T14:33:52;2.25;;;0.60;;
7336;SDS011;54510;42.016;23.098;2024-03-29T14:36:17;2.00;;;0.87;;
7336;SDS011;54510;42.016;23.098;2024-03-29T14:38:43;3.03;;;0.90;;
7336;SDS011;54510;42.016;23.098;2024-03-29T14:41:09;2.90;;;0.50;;
7336;SDS011;54510;42.016;23.098;2024-03-29T14:43:34;1.93;;;0.50;;
7336;SDS011;54510;42.016;23.098;2024-03-29T14:45:59;1.20;;;0.30;;
7336;SDS011;54510;42.016;23.098;2024-03-29T14:48:24;1.88;;;0.35;;